This is the latest recevied weather packets stored in our database for station/object DF1GD-10. If no packets are shown the sender has not sent any weather packets the latest 10 day(s).
| Time | Temp. | Humidity | Pressure | Rain* | Wind** | Luminosity | Snow |
|---|---|---|---|---|---|---|---|
| 1788619431 | 31.67° C | 16% | 1022.2 hPa | - | - | - | - |
| 1788618531 | 31.67° C | 17% | 1022.2 hPa | - | - | - | - |
| 1788617631 | 31.67° C | 17% | 1022.4 hPa | - | - | - | - |
| 1788616731 | 31.11° C | 17% | 1022.5 hPa | - | - | - | - |
| 1788615831 | 30° C | 19% | 1022.5 hPa | - | - | - | - |
| 1788614930 | 26.11° C | 24% | 1022.4 hPa | - | - | - | - |
| 1788614030 | 25° C | 26% | 1022.4 hPa | - | - | - | - |
| 1788613130 | 24.44° C | 27% | 1022.4 hPa | - | - | - | - |
| 1788612230 | 23.33° C | 30% | 1022.6 hPa | - | - | - | - |
| 1788611330 | 23.89° C | 31% | 1022.6 hPa | - | - | - | - |
| 1788610430 | 23.33° C | 33% | 1022.4 hPa | - | - | - | - |
| 1788609530 | 23.33° C | 33% | 1022.7 hPa | - | - | - | - |
| 1788608630 | 25.56° C | 29% | 1022.7 hPa | - | - | - | - |
| 1788607729 | 24.44° C | 32% | 1022.8 hPa | - | - | - | - |
| 1788606829 | 26.67° C | 29% | 1022.7 hPa | - | - | - | - |
| 1788605929 | 26.11° C | 29% | 1022.9 hPa | - | - | - | - |
| 1788605029 | 22.22° C | 39% | 1022.8 hPa | - | - | - | - |
| 1788604129 | 21.67° C | 45% | 1022.8 hPa | - | - | - | - |
| 1788603229 | 21.11° C | 44% | 1022.8 hPa | - | - | - | - |
| 1788602329 | 21.67° C | 44% | 1022.8 hPa | - | - | - | - |
| 1788601429 | 21.11° C | 49% | 1022.9 hPa | - | - | - | - |
| 1788600528 | 19.44° C | 53% | 1022.7 hPa | - | - | - | - |
| 1788599628 | 20° C | 55% | 1022.7 hPa | - | - | - | - |
| 1788598728 | 19.44° C | 57% | 1022.6 hPa | - | - | - | - |
| 1788597828 | 18.89° C | 57% | 1022.3 hPa | - | - | - | - |
* Rain since midnight (hover to see other rain measurements)
** Current wind speed in m/s (hover to see current wind gust speed)